sensor_id;sensor_type;location;lat;lon;timestamp;pressure;altitude;pressure_sealevel;temperature
76901;BMP280;65859;43.020;25.096;2023-04-24T00:02:22;99014.13;;;9.41
76901;BMP280;65859;43.020;25.096;2023-04-24T00:04:50;99020.25;;;9.63
76901;BMP280;65859;43.020;25.096;2023-04-24T00:07:16;99022.13;;;9.62
76901;BMP280;65859;43.020;25.096;2023-04-24T00:09:43;99021.63;;;9.98
76901;BMP280;65859;43.020;25.096;2023-04-24T00:12:10;99017.56;;;10.01
76901;BMP280;65859;43.020;25.096;2023-04-24T00:14:36;99017.31;;;10.15
76901;BMP280;65859;43.020;25.096;2023-04-24T00:17:02;99010.53;;;10.05
76901;BMP280;65859;43.020;25.096;2023-04-24T00:19:29;99005.41;;;10.00
76901;BMP280;65859;43.020;25.096;2023-04-24T00:21:55;99015.22;;;9.99
76901;BMP280;65859;43.020;25.096;2023-04-24T00:24:22;99012.28;;;10.01
76901;BMP280;65859;43.020;25.096;2023-04-24T00:26:48;99014.19;;;9.62
76901;BMP280;65859;43.020;25.096;2023-04-24T00:29:14;99005.56;;;8.72
76901;BMP280;65859;43.020;25.096;2023-04-24T00:31:43;99005.72;;;8.15
76901;BMP280;65859;43.020;25.096;2023-04-24T00:34:09;98998.25;;;7.59
76901;BMP280;65859;43.020;25.096;2023-04-24T00:36:36;99005.63;;;7.40
76901;BMP280;65859;43.020;25.096;2023-04-24T00:39:02;99009.13;;;7.27
76901;BMP280;65859;43.020;25.096;2023-04-24T00:41:29;99009.84;;;7.19
76901;BMP280;65859;43.020;25.096;2023-04-24T00:43:55;99010.66;;;7.99
76901;BMP280;65859;43.020;25.096;2023-04-24T00:46:22;99015.44;;;7.88
76901;BMP280;65859;43.020;25.096;2023-04-24T00:48:48;99018.28;;;8.09
76901;BMP280;65859;43.020;25.096;2023-04-24T00:51:15;99018.50;;;7.73
76901;BMP280;65859;43.020;25.096;2023-04-24T00:53:41;99022.81;;;7.07
76901;BMP280;65859;43.020;25.096;2023-04-24T00:56:08;99013.53;;;7.40
76901;BMP280;65859;43.020;25.096;2023-04-24T00:58:34;99005.47;;;7.14
76901;BMP280;65859;43.020;25.096;2023-04-24T01:01:01;98993.28;;;7.27
76901;BMP280;65859;43.020;25.096;2023-04-24T01:03:30;98998.31;;;7.37
76901;BMP280;65859;43.020;25.096;2023-04-24T01:05:58;99010.31;;;7.21
76901;BMP280;65859;43.020;25.096;2023-04-24T01:08:25;99015.19;;;7.58
76901;BMP280;65859;43.020;25.096;2023-04-24T01:10:57;99010.09;;;7.09
76901;BMP280;65859;43.020;25.096;2023-04-24T01:13:24;99007.00;;;7.07
76901;BMP280;65859;43.020;25.096;2023-04-24T01:15:51;99010.72;;;7.68
76901;BMP280;65859;43.020;25.096;2023-04-24T01:18:17;99011.19;;;7.70
76901;BMP280;65859;43.020;25.096;2023-04-24T01:20:45;99011.13;;;7.61
76901;BMP280;65859;43.020;25.096;2023-04-24T01:23:12;99008.97;;;7.32
76901;BMP280;65859;43.020;25.096;2023-04-24T01:25:39;99007.50;;;7.17
76901;BMP280;65859;43.020;25.096;2023-04-24T01:28:05;99001.72;;;7.07
76901;BMP280;65859;43.020;25.096;2023-04-24T01:30:32;98995.41;;;7.16
76901;BMP280;65859;43.020;25.096;2023-04-24T01:32:59;98994.94;;;7.14
76901;BMP280;65859;43.020;25.096;2023-04-24T01:35:27;98991.72;;;7.57
76901;BMP280;65859;43.020;25.096;2023-04-24T01:37:53;98991.47;;;7.36
76901;BMP280;65859;43.020;25.096;2023-04-24T01:40:20;98991.63;;;7.09
76901;BMP280;65859;43.020;25.096;2023-04-24T01:42:46;98986.97;;;7.37
76901;BMP280;65859;43.020;25.096;2023-04-24T01:45:13;98991.75;;;8.31
76901;BMP280;65859;43.020;25.096;2023-04-24T01:47:40;98990.66;;;8.76
76901;BMP280;65859;43.020;25.096;2023-04-24T01:50:07;98989.72;;;7.63
76901;BMP280;65859;43.020;25.096;2023-04-24T01:52:34;98989.91;;;7.35
76901;BMP280;65859;43.020;25.096;2023-04-24T01:55:03;98983.94;;;7.61
76901;BMP280;65859;43.020;25.096;2023-04-24T01:57:30;98986.25;;;7.45
76901;BMP280;65859;43.020;25.096;2023-04-24T01:59:57;98996.81;;;7.53
76901;BMP280;65859;43.020;25.096;2023-04-24T02:02:23;98998.56;;;8.58
76901;BMP280;65859;43.020;25.096;2023-04-24T02:04:53;98997.03;;;8.31
76901;BMP280;65859;43.020;25.096;2023-04-24T02:07:21;98992.94;;;7.20
76901;BMP280;65859;43.020;25.096;2023-04-24T02:09:47;98984.97;;;7.82
76901;BMP280;65859;43.020;25.096;2023-04-24T02:12:14;98978.34;;;8.36
76901;BMP280;65859;43.020;25.096;2023-04-24T02:14:41;98979.59;;;8.48
76901;BMP280;65859;43.020;25.096;2023-04-24T02:17:08;98983.66;;;8.45
76901;BMP280;65859;43.020;25.096;2023-04-24T02:19:34;98980.19;;;8.88
76901;BMP280;65859;43.020;25.096;2023-04-24T02:22:01;98974.25;;;9.00
76901;BMP280;65859;43.020;25.096;2023-04-24T02:24:27;98976.31;;;8.77
76901;BMP280;65859;43.020;25.096;2023-04-24T02:26:53;98968.06;;;8.00
76901;BMP280;65859;43.020;25.096;2023-04-24T02:29:20;98997.97;;;8.35
76901;BMP280;65859;43.020;25.096;2023-04-24T02:31:47;98983.34;;;8.55
76901;BMP280;65859;43.020;25.096;2023-04-24T02:34:13;98957.44;;;7.83
76901;BMP280;65859;43.020;25.096;2023-04-24T02:36:40;98954.59;;;7.53
76901;BMP280;65859;43.020;25.096;2023-04-24T02:39:07;98973.78;;;7.76
76901;BMP280;65859;43.020;25.096;2023-04-24T02:41:34;98941.34;;;7.36
76901;BMP280;65859;43.020;25.096;2023-04-24T02:44:00;98939.59;;;7.23
76901;BMP280;65859;43.020;25.096;2023-04-24T02:46:27;98939.13;;;7.87
76901;BMP280;65859;43.020;25.096;2023-04-24T02:48:53;98945.84;;;8.27
76901;BMP280;65859;43.020;25.096;2023-04-24T02:51:19;98959.63;;;9.02
76901;BMP280;65859;43.020;25.096;2023-04-24T02:53:46;98964.97;;;9.32
76901;BMP280;65859;43.020;25.096;2023-04-24T02:56:12;98973.81;;;9.36
76901;BMP280;65859;43.020;25.096;2023-04-24T02:58:38;98968.09;;;8.52
76901;BMP280;65859;43.020;25.096;2023-04-24T03:01:05;98957.25;;;7.62
76901;BMP280;65859;43.020;25.096;2023-04-24T03:03:32;98963.66;;;7.70
76901;BMP280;65859;43.020;25.096;2023-04-24T03:05:58;98948.25;;;7.63
76901;BMP280;65859;43.020;25.096;2023-04-24T03:08:25;98949.25;;;7.84
76901;BMP280;65859;43.020;25.096;2023-04-24T03:10:52;98953.44;;;7.94
76901;BMP280;65859;43.020;25.096;2023-04-24T03:13:19;98954.69;;;7.88
76901;BMP280;65859;43.020;25.096;2023-04-24T03:15:45;98954.81;;;7.83
76901;BMP280;65859;43.020;25.096;2023-04-24T03:18:12;98957.66;;;8.73
76901;BMP280;65859;43.020;25.096;2023-04-24T03:20:39;98950.38;;;8.61
76901;BMP280;65859;43.020;25.096;2023-04-24T03:23:05;98960.16;;;8.18
76901;BMP280;65859;43.020;25.096;2023-04-24T03:25:32;98962.78;;;8.00
76901;BMP280;65859;43.020;25.096;2023-04-24T03:27:58;98963.88;;;8.60
76901;BMP280;65859;43.020;25.096;2023-04-24T03:30:24;98969.88;;;9.04
76901;BMP280;65859;43.020;25.096;2023-04-24T03:32:51;98966.16;;;9.43
76901;BMP280;65859;43.020;25.096;2023-04-24T03:35:17;98962.16;;;9.28
76901;BMP280;65859;43.020;25.096;2023-04-24T03:37:43;98971.28;;;9.98
76901;BMP280;65859;43.020;25.096;2023-04-24T03:40:10;98973.97;;;8.84
76901;BMP280;65859;43.020;25.096;2023-04-24T03:42:38;98975.69;;;9.35
76901;BMP280;65859;43.020;25.096;2023-04-24T03:45:04;98971.66;;;9.67
76901;BMP280;65859;43.020;25.096;2023-04-24T03:47:31;98978.34;;;9.27
76901;BMP280;65859;43.020;25.096;2023-04-24T03:49:57;98979.56;;;9.38
76901;BMP280;65859;43.020;25.096;2023-04-24T03:52:24;98984.41;;;9.95
76901;BMP280;65859;43.020;25.096;2023-04-24T03:54:50;98994.88;;;9.91
76901;BMP280;65859;43.020;25.096;2023-04-24T03:57:16;99004.34;;;9.63
76901;BMP280;65859;43.020;25.096;2023-04-24T03:59:43;99001.75;;;9.54
76901;BMP280;65859;43.020;25.096;2023-04-24T04:02:10;98992.53;;;9.90
76901;BMP280;65859;43.020;25.096;2023-04-24T04:04:36;99006.13;;;10.09
76901;BMP280;65859;43.020;25.096;2023-04-24T04:07:02;99011.50;;;8.51
76901;BMP280;65859;43.020;25.096;2023-04-24T04:09:29;99001.63;;;9.51
76901;BMP280;65859;43.020;25.096;2023-04-24T04:11:55;99006.31;;;9.45
76901;BMP280;65859;43.020;25.096;2023-04-24T04:14:23;99001.41;;;9.64
76901;BMP280;65859;43.020;25.096;2023-04-24T04:16:49;99002.97;;;9.65
76901;BMP280;65859;43.020;25.096;2023-04-24T04:19:16;99008.19;;;9.44
76901;BMP280;65859;43.020;25.096;2023-04-24T04:21:42;99010.56;;;9.76
76901;BMP280;65859;43.020;25.096;2023-04-24T04:24:08;99007.28;;;9.79
76901;BMP280;65859;43.020;25.096;2023-04-24T04:26:35;99005.69;;;9.78
76901;BMP280;65859;43.020;25.096;2023-04-24T04:29:03;99014.53;;;10.11
76901;BMP280;65859;43.020;25.096;2023-04-24T04:31:30;99010.13;;;10.36
76901;BMP280;65859;43.020;25.096;2023-04-24T04:33:56;99008.97;;;10.25
76901;BMP280;65859;43.020;25.096;2023-04-24T04:36:23;99013.47;;;10.12
76901;BMP280;65859;43.020;25.096;2023-04-24T04:38:51;99012.91;;;9.98
76901;BMP280;65859;43.020;25.096;2023-04-24T04:41:17;99019.28;;;10.26
76901;BMP280;65859;43.020;25.096;2023-04-24T04:43:44;99025.28;;;9.09
76901;BMP280;65859;43.020;25.096;2023-04-24T04:46:12;99027.91;;;9.94
76901;BMP280;65859;43.020;25.096;2023-04-24T04:48:38;99029.22;;;10.09
76901;BMP280;65859;43.020;25.096;2023-04-24T04:51:05;99037.47;;;10.70
76901;BMP280;65859;43.020;25.096;2023-04-24T04:53:32;99034.34;;;10.35
76901;BMP280;65859;43.020;25.096;2023-04-24T04:55:58;99025.97;;;9.73
76901;BMP280;65859;43.020;25.096;2023-04-24T04:58:25;99029.84;;;11.01
76901;BMP280;65859;43.020;25.096;2023-04-24T05:00:51;99024.53;;;12.39
76901;BMP280;65859;43.020;25.096;2023-04-24T05:03:18;99030.16;;;12.50
76901;BMP280;65859;43.020;25.096;2023-04-24T05:05:44;99022.81;;;13.89
76901;BMP280;65859;43.020;25.096;2023-04-24T05:08:12;99028.84;;;14.05
76901;BMP280;65859;43.020;25.096;2023-04-24T05:10:38;99035.81;;;14.10
76901;BMP280;65859;43.020;25.096;2023-04-24T05:13:05;99024.78;;;12.62
76901;BMP280;65859;43.020;25.096;2023-04-24T05:15:31;99018.16;;;11.63
76901;BMP280;65859;43.020;25.096;2023-04-24T05:17:59;99009.75;;;11.74
76901;BMP280;65859;43.020;25.096;2023-04-24T05:20:25;98999.56;;;12.88
76901;BMP280;65859;43.020;25.096;2023-04-24T05:22:51;99008.25;;;13.16
76901;BMP280;65859;43.020;25.096;2023-04-24T05:25:18;99013.75;;;12.48
76901;BMP280;65859;43.020;25.096;2023-04-24T05:27:44;99024.72;;;13.53
76901;BMP280;65859;43.020;25.096;2023-04-24T05:30:12;99009.19;;;12.92
76901;BMP280;65859;43.020;25.096;2023-04-24T05:32:40;99014.00;;;12.87
76901;BMP280;65859;43.020;25.096;2023-04-24T05:35:07;99009.94;;;12.77
76901;BMP280;65859;43.020;25.096;2023-04-24T05:37:33;99015.59;;;11.79
76901;BMP280;65859;43.020;25.096;2023-04-24T05:40:00;99001.38;;;12.84
76901;BMP280;65859;43.020;25.096;2023-04-24T05:42:26;99006.63;;;12.80
76901;BMP280;65859;43.020;25.096;2023-04-24T05:44:52;99010.59;;;12.74
76901;BMP280;65859;43.020;25.096;2023-04-24T05:47:20;99004.31;;;11.58
76901;BMP280;65859;43.020;25.096;2023-04-24T05:49:49;99008.31;;;12.16
76901;BMP280;65859;43.020;25.096;2023-04-24T05:52:15;99003.38;;;11.90
76901;BMP280;65859;43.020;25.096;2023-04-24T05:54:41;99011.78;;;12.05
76901;BMP280;65859;43.020;25.096;2023-04-24T05:57:08;99008.03;;;11.94
76901;BMP280;65859;43.020;25.096;2023-04-24T05:59:36;99009.06;;;11.77
76901;BMP280;65859;43.020;25.096;2023-04-24T06:02:04;99011.72;;;12.29
76901;BMP280;65859;43.020;25.096;2023-04-24T06:04:31;99012.22;;;13.07
76901;BMP280;65859;43.020;25.096;2023-04-24T06:06:57;99025.38;;;13.66
76901;BMP280;65859;43.020;25.096;2023-04-24T06:09:24;99024.56;;;12.99
76901;BMP280;65859;43.020;25.096;2023-04-24T06:11:51;99032.81;;;13.10
76901;BMP280;65859;43.020;25.096;2023-04-24T06:14:19;99039.38;;;12.68
76901;BMP280;65859;43.020;25.096;2023-04-24T06:16:46;99034.59;;;12.06
76901;BMP280;65859;43.020;25.096;2023-04-24T06:19:12;99022.28;;;13.13
76901;BMP280;65859;43.020;25.096;2023-04-24T06:21:40;99018.09;;;13.16
76901;BMP280;65859;43.020;25.096;2023-04-24T06:24:06;99016.84;;;13.25
76901;BMP280;65859;43.020;25.096;2023-04-24T06:26:33;99010.06;;;12.81
76901;BMP280;65859;43.020;25.096;2023-04-24T06:28:59;99013.00;;;12.63
76901;BMP280;65859;43.020;25.096;2023-04-24T06:31:26;99011.25;;;12.99
76901;BMP280;65859;43.020;25.096;2023-04-24T06:33:52;99013.56;;;13.00
76901;BMP280;65859;43.020;25.096;2023-04-24T06:36:18;99006.19;;;13.25
76901;BMP280;65859;43.020;25.096;2023-04-24T06:38:45;99005.47;;;13.28
76901;BMP280;65859;43.020;25.096;2023-04-24T06:41:11;99003.50;;;13.25
76901;BMP280;65859;43.020;25.096;2023-04-24T06:43:37;99000.53;;;13.62
76901;BMP280;65859;43.020;25.096;2023-04-24T06:46:04;99002.22;;;13.35
76901;BMP280;65859;43.020;25.096;2023-04-24T06:48:30;99001.50;;;12.75
76901;BMP280;65859;43.020;25.096;2023-04-24T06:50:56;99001.94;;;12.77
76901;BMP280;65859;43.020;25.096;2023-04-24T06:53:24;98993.72;;;13.14
76901;BMP280;65859;43.020;25.096;2023-04-24T06:55:51;98995.31;;;12.71
76901;BMP280;65859;43.020;25.096;2023-04-24T06:58:18;98989.03;;;12.63
76901;BMP280;65859;43.020;25.096;2023-04-24T07:00:44;98992.44;;;12.76
76901;BMP280;65859;43.020;25.096;2023-04-24T07:03:11;98985.81;;;12.86
76901;BMP280;65859;43.020;25.096;2023-04-24T07:05:38;98997.69;;;13.20
76901;BMP280;65859;43.020;25.096;2023-04-24T07:08:04;98994.06;;;12.96
76901;BMP280;65859;43.020;25.096;2023-04-24T07:10:30;98984.16;;;13.28
76901;BMP280;65859;43.020;25.096;2023-04-24T07:12:57;98989.75;;;13.08
76901;BMP280;65859;43.020;25.096;2023-04-24T07:15:23;98989.25;;;13.02
76901;BMP280;65859;43.020;25.096;2023-04-24T07:17:50;98998.28;;;13.64
76901;BMP280;65859;43.020;25.096;2023-04-24T07:20:16;99010.47;;;15.08
76901;BMP280;65859;43.020;25.096;2023-04-24T07:22:43;99004.38;;;15.34
76901;BMP280;65859;43.020;25.096;2023-04-24T07:25:10;99003.94;;;15.31
76901;BMP280;65859;43.020;25.096;2023-04-24T07:27:37;98999.59;;;15.20
76901;BMP280;65859;43.020;25.096;2023-04-24T07:30:04;99004.75;;;15.36
76901;BMP280;65859;43.020;25.096;2023-04-24T07:32:31;99008.00;;;15.48
76901;BMP280;65859;43.020;25.096;2023-04-24T07:34:57;99002.16;;;15.39
76901;BMP280;65859;43.020;25.096;2023-04-24T07:37:24;98999.13;;;15.41
76901;BMP280;65859;43.020;25.096;2023-04-24T07:39:50;99001.75;;;14.65
76901;BMP280;65859;43.020;25.096;2023-04-24T07:42:16;99000.16;;;14.60
76901;BMP280;65859;43.020;25.096;2023-04-24T07:44:43;98992.41;;;14.32
76901;BMP280;65859;43.020;25.096;2023-04-24T07:47:09;98999.19;;;14.30
76901;BMP280;65859;43.020;25.096;2023-04-24T07:49:35;98992.63;;;14.24
76901;BMP280;65859;43.020;25.096;2023-04-24T07:52:02;98994.16;;;14.25
76901;BMP280;65859;43.020;25.096;2023-04-24T07:54:29;98995.84;;;14.33
76901;BMP280;65859;43.020;25.096;2023-04-24T07:56:57;98981.44;;;14.18
76901;BMP280;65859;43.020;25.096;2023-04-24T07:59:24;98988.19;;;13.93
76901;BMP280;65859;43.020;25.096;2023-04-24T08:01:50;98981.19;;;13.65
76901;BMP280;65859;43.020;25.096;2023-04-24T08:04:16;98978.25;;;13.90
76901;BMP280;65859;43.020;25.096;2023-04-24T08:06:44;98983.16;;;14.07
76901;BMP280;65859;43.020;25.096;2023-04-24T08:09:10;98982.78;;;13.89
76901;BMP280;65859;43.020;25.096;2023-04-24T08:11:37;98970.88;;;13.83
76901;BMP280;65859;43.020;25.096;2023-04-24T08:14:03;98974.22;;;13.80
76901;BMP280;65859;43.020;25.096;2023-04-24T08:16:29;98970.13;;;13.67
76901;BMP280;65859;43.020;25.096;2023-04-24T08:18:56;98965.50;;;13.64
76901;BMP280;65859;43.020;25.096;2023-04-24T08:21:22;98979.00;;;13.71
76901;BMP280;65859;43.020;25.096;2023-04-24T08:23:49;98970.88;;;14.02
76901;BMP280;65859;43.020;25.096;2023-04-24T08:26:16;98972.09;;;14.70
76901;BMP280;65859;43.020;25.096;2023-04-24T08:28:43;98977.22;;;15.61
76901;BMP280;65859;43.020;25.096;2023-04-24T08:31:10;98978.03;;;15.96
76901;BMP280;65859;43.020;25.096;2023-04-24T08:33:36;98978.53;;;14.92
76901;BMP280;65859;43.020;25.096;2023-04-24T08:36:04;98974.91;;;14.81
76901;BMP280;65859;43.020;25.096;2023-04-24T08:38:31;98968.22;;;14.67
76901;BMP280;65859;43.020;25.096;2023-04-24T08:40:59;98968.66;;;15.49
76901;BMP280;65859;43.020;25.096;2023-04-24T08:43:26;98963.94;;;15.99
76901;BMP280;65859;43.020;25.096;2023-04-24T08:45:56;98958.16;;;15.63
76901;BMP280;65859;43.020;25.096;2023-04-24T08:48:23;98958.22;;;16.44
76901;BMP280;65859;43.020;25.096;2023-04-24T08:50:51;98956.44;;;17.11
76901;BMP280;65859;43.020;25.096;2023-04-24T08:53:18;98969.34;;;17.78
76901;BMP280;65859;43.020;25.096;2023-04-24T08:55:47;98980.13;;;17.92
76901;BMP280;65859;43.020;25.096;2023-04-24T08:58:16;98993.25;;;17.21
76901;BMP280;65859;43.020;25.096;2023-04-24T09:00:43;98964.84;;;18.64
76901;BMP280;65859;43.020;25.096;2023-04-24T09:03:15;98960.25;;;17.13
76901;BMP280;65859;43.020;25.096;2023-04-24T09:05:43;98962.06;;;17.71
76901;BMP280;65859;43.020;25.096;2023-04-24T09:08:13;98963.69;;;18.50
76901;BMP280;65859;43.020;25.096;2023-04-24T09:10:41;98970.94;;;18.07
76901;BMP280;65859;43.020;25.096;2023-04-24T09:13:07;98967.91;;;18.69
76901;BMP280;65859;43.020;25.096;2023-04-24T09:15:36;98961.31;;;19.06
76901;BMP280;65859;43.020;25.096;2023-04-24T09:18:03;98953.72;;;18.54
76901;BMP280;65859;43.020;25.096;2023-04-24T09:20:30;98957.53;;;18.82
76901;BMP280;65859;43.020;25.096;2023-04-24T09:22:57;98947.22;;;18.41
76901;BMP280;65859;43.020;25.096;2023-04-24T09:25:31;98945.94;;;17.67
76901;BMP280;65859;43.020;25.096;2023-04-24T09:28:02;98951.34;;;17.96
76901;BMP280;65859;43.020;25.096;2023-04-24T09:30:29;98960.56;;;17.91
76901;BMP280;65859;43.020;25.096;2023-04-24T09:33:17;98948.03;;;17.23
76901;BMP280;65859;43.020;25.096;2023-04-24T09:35:49;98948.66;;;17.89
76901;BMP280;65859;43.020;25.096;2023-04-24T09:38:16;98954.47;;;18.05
76901;BMP280;65859;43.020;25.096;2023-04-24T09:40:44;98943.38;;;18.46
76901;BMP280;65859;43.020;25.096;2023-04-24T09:43:12;98943.44;;;19.55
76901;BMP280;65859;43.020;25.096;2023-04-24T09:45:39;98941.88;;;19.54
76901;BMP280;65859;43.020;25.096;2023-04-24T09:48:09;98962.75;;;22.29
76901;BMP280;65859;43.020;25.096;2023-04-24T09:50:36;98953.53;;;22.03
76901;BMP280;65859;43.020;25.096;2023-04-24T09:53:04;98951.44;;;21.64
76901;BMP280;65859;43.020;25.096;2023-04-24T09:55:31;98951.09;;;20.63
76901;BMP280;65859;43.020;25.096;2023-04-24T09:58:00;99004.59;;;26.13
76901;BMP280;65859;43.020;25.096;2023-04-24T10:00:29;98986.44;;;28.83
76901;BMP280;65859;43.020;25.096;2023-04-24T10:03:03;98972.78;;;28.05
76901;BMP280;65859;43.020;25.096;2023-04-24T10:05:35;98962.78;;;26.85
76901;BMP280;65859;43.020;25.096;2023-04-24T10:08:10;98935.72;;;23.60
76901;BMP280;65859;43.020;25.096;2023-04-24T10:10:44;98927.84;;;19.87
76901;BMP280;65859;43.020;25.096;2023-04-24T10:13:13;98931.22;;;19.39
76901;BMP280;65859;43.020;25.096;2023-04-24T10:15:41;98927.03;;;19.24
76901;BMP280;65859;43.020;25.096;2023-04-24T10:18:08;98923.25;;;19.14
76901;BMP280;65859;43.020;25.096;2023-04-24T10:20:37;98916.44;;;19.69
76901;BMP280;65859;43.020;25.096;2023-04-24T10:23:04;98927.47;;;19.15
76901;BMP280;65859;43.020;25.096;2023-04-24T10:25:32;98924.13;;;19.67
76901;BMP280;65859;43.020;25.096;2023-04-24T10:28:00;98927.69;;;19.53
76901;BMP280;65859;43.020;25.096;2023-04-24T10:30:32;98924.59;;;19.62
76901;BMP280;65859;43.020;25.096;2023-04-24T10:33:06;98922.59;;;20.62
76901;BMP280;65859;43.020;25.096;2023-04-24T10:35:41;98924.53;;;21.80
76901;BMP280;65859;43.020;25.096;2023-04-24T10:38:16;98922.91;;;22.10
76901;BMP280;65859;43.020;25.096;2023-04-24T10:40:44;98921.09;;;20.58
76901;BMP280;65859;43.020;25.096;2023-04-24T10:43:11;98919.84;;;21.84
76901;BMP280;65859;43.020;25.096;2023-04-24T10:46:03;98941.66;;;23.03
76901;BMP280;65859;43.020;25.096;2023-04-24T10:48:31;98915.16;;;20.36
76901;BMP280;65859;43.020;25.096;2023-04-24T10:50:58;98894.72;;;20.38
76901;BMP280;65859;43.020;25.096;2023-04-24T10:53:29;98885.94;;;20.27
76901;BMP280;65859;43.020;25.096;2023-04-24T10:56:07;98883.84;;;19.53
76901;BMP280;65859;43.020;25.096;2023-04-24T10:58:43;98875.56;;;19.85
76901;BMP280;65859;43.020;25.096;2023-04-24T11:01:30;98877.25;;;19.61
76901;BMP280;65859;43.020;25.096;2023-04-24T11:04:01;98866.47;;;19.64
76901;BMP280;65859;43.020;25.096;2023-04-24T11:06:31;98866.06;;;19.69
76901;BMP280;65859;43.020;25.096;2023-04-24T11:09:08;98868.78;;;19.66
76901;BMP280;65859;43.020;25.096;2023-04-24T11:11:36;98877.78;;;19.93
76901;BMP280;65859;43.020;25.096;2023-04-24T11:14:09;98881.94;;;20.46
76901;BMP280;65859;43.020;25.096;2023-04-24T11:16:47;98888.75;;;21.73
76901;BMP280;65859;43.020;25.096;2023-04-24T11:19:18;98880.03;;;20.81
76901;BMP280;65859;43.020;25.096;2023-04-24T11:21:47;98895.16;;;21.05
76901;BMP280;65859;43.020;25.096;2023-04-24T11:27:22;98860.66;;;20.18
76901;BMP280;65859;43.020;25.096;2023-04-24T11:30:00;98856.00;;;20.22
76901;BMP280;65859;43.020;25.096;2023-04-24T11:34:57;98849.53;;;20.12
76901;BMP280;65859;43.020;25.096;2023-04-24T11:37:27;98846.59;;;20.37
76901;BMP280;65859;43.020;25.096;2023-04-24T11:39:58;98839.00;;;20.28
76901;BMP280;65859;43.020;25.096;2023-04-24T11:42:24;98835.84;;;20.33
76901;BMP280;65859;43.020;25.096;2023-04-24T11:44:55;98840.38;;;20.78
76901;BMP280;65859;43.020;25.096;2023-04-24T11:47:29;98829.59;;;20.78
76901;BMP280;65859;43.020;25.096;2023-04-24T11:49:56;98832.91;;;21.19
76901;BMP280;65859;43.020;25.096;2023-04-24T11:52:22;98829.88;;;21.14
76901;BMP280;65859;43.020;25.096;2023-04-24T11:54:49;98829.66;;;21.28
76901;BMP280;65859;43.020;25.096;2023-04-24T11:57:25;98817.03;;;21.21
76901;BMP280;65859;43.020;25.096;2023-04-24T12:00:00;98814.41;;;20.87
76901;BMP280;65859;43.020;25.096;2023-04-24T12:02:27;98812.16;;;20.52
76901;BMP280;65859;43.020;25.096;2023-04-24T12:04:54;98799.06;;;20.84
76901;BMP280;65859;43.020;25.096;2023-04-24T12:07:21;98796.66;;;20.59
76901;BMP280;65859;43.020;25.096;2023-04-24T12:09:57;98801.19;;;20.35
76901;BMP280;65859;43.020;25.096;2023-04-24T12:12:27;98798.69;;;20.52
76901;BMP280;65859;43.020;25.096;2023-04-24T12:14:56;98787.69;;;20.69
76901;BMP280;65859;43.020;25.096;2023-04-24T12:17:33;98774.53;;;21.02
76901;BMP280;65859;43.020;25.096;2023-04-24T12:20:02;98772.81;;;21.39
76901;BMP280;65859;43.020;25.096;2023-04-24T12:22:48;98762.44;;;20.53
76901;BMP280;65859;43.020;25.096;2023-04-24T12:25:17;98757.59;;;21.01
76901;BMP280;65859;43.020;25.096;2023-04-24T12:27:44;98752.47;;;20.80
76901;BMP280;65859;43.020;25.096;2023-04-24T12:30:15;98758.44;;;20.68
76901;BMP280;65859;43.020;25.096;2023-04-24T12:32:47;98751.47;;;20.97
76901;BMP280;65859;43.020;25.096;2023-04-24T12:35:18;98750.13;;;21.32
76901;BMP280;65859;43.020;25.096;2023-04-24T12:37:46;98747.63;;;21.22
76901;BMP280;65859;43.020;25.096;2023-04-24T12:40:14;98732.72;;;20.87
76901;BMP280;65859;43.020;25.096;2023-04-24T12:42:45;98730.94;;;21.03
76901;BMP280;65859;43.020;25.096;2023-04-24T12:45:12;98716.75;;;21.46
76901;BMP280;65859;43.020;25.096;2023-04-24T12:47:40;98725.91;;;21.06
76901;BMP280;65859;43.020;25.096;2023-04-24T12:50:08;98716.53;;;20.87
76901;BMP280;65859;43.020;25.096;2023-04-24T12:52:36;98711.00;;;20.97
76901;BMP280;65859;43.020;25.096;2023-04-24T12:55:02;98698.44;;;20.60
76901;BMP280;65859;43.020;25.096;2023-04-24T12:57:31;98703.09;;;21.10
76901;BMP280;65859;43.020;25.096;2023-04-24T12:59:58;98693.47;;;21.09
76901;BMP280;65859;43.020;25.096;2023-04-24T13:02:27;98693.59;;;21.02
76901;BMP280;65859;43.020;25.096;2023-04-24T13:04:54;98684.38;;;21.23
76901;BMP280;65859;43.020;25.096;2023-04-24T13:07:21;98683.59;;;21.22
76901;BMP280;65859;43.020;25.096;2023-04-24T13:09:49;98676.88;;;21.34
76901;BMP280;65859;43.020;25.096;2023-04-24T13:12:17;98669.06;;;21.59
76901;BMP280;65859;43.020;25.096;2023-04-24T13:14:44;98673.97;;;21.64
76901;BMP280;65859;43.020;25.096;2023-04-24T13:17:11;98668.13;;;21.26
76901;BMP280;65859;43.020;25.096;2023-04-24T13:19:40;98661.03;;;21.56
76901;BMP280;65859;43.020;25.096;2023-04-24T13:22:09;98662.44;;;21.41
76901;BMP280;65859;43.020;25.096;2023-04-24T13:24:35;98659.16;;;21.53
76901;BMP280;65859;43.020;25.096;2023-04-24T13:27:02;98652.50;;;21.38
76901;BMP280;65859;43.020;25.096;2023-04-24T13:29:28;98650.97;;;21.36
76901;BMP280;65859;43.020;25.096;2023-04-24T13:31:55;98655.78;;;21.25
76901;BMP280;65859;43.020;25.096;2023-04-24T13:34:25;98639.09;;;21.11
76901;BMP280;65859;43.020;25.096;2023-04-24T13:36:53;98640.00;;;21.00
76901;BMP280;65859;43.020;25.096;2023-04-24T13:39:21;98636.88;;;21.06
76901;BMP280;65859;43.020;25.096;2023-04-24T13:41:47;98633.00;;;21.07
76901;BMP280;65859;43.020;25.096;2023-04-24T13:44:19;98625.75;;;21.00
76901;BMP280;65859;43.020;25.096;2023-04-24T13:46:48;98628.00;;;21.05
76901;BMP280;65859;43.020;25.096;2023-04-24T13:49:15;98636.88;;;21.49
76901;BMP280;65859;43.020;25.096;2023-04-24T13:51:42;98632.56;;;21.31
76901;BMP280;65859;43.020;25.096;2023-04-24T13:54:09;98636.81;;;21.72
76901;BMP280;65859;43.020;25.096;2023-04-24T13:56:35;98626.41;;;21.51
76901;BMP280;65859;43.020;25.096;2023-04-24T13:59:02;98626.25;;;21.78
76901;BMP280;65859;43.020;25.096;2023-04-24T14:01:28;98616.63;;;21.96
76901;BMP280;65859;43.020;25.096;2023-04-24T14:03:56;98627.13;;;22.11
76901;BMP280;65859;43.020;25.096;2023-04-24T14:06:22;98623.09;;;21.63
76901;BMP280;65859;43.020;25.096;2023-04-24T14:08:49;98613.22;;;21.33
76901;BMP280;65859;43.020;25.096;2023-04-24T14:11:16;98613.31;;;21.69